createdAt,value
2022-10-24T00:00:44.802Z,16.28
2022-10-24T00:03:12.274Z,16.31
2022-10-24T00:05:43.326Z,16.30
2022-10-24T00:08:10.878Z,16.29
2022-10-24T00:10:41.129Z,16.26
2022-10-24T00:13:08.243Z,16.28
2022-10-24T00:15:35.364Z,16.25
2022-10-24T00:18:02.513Z,16.07
2022-10-24T00:20:29.686Z,16.17
2022-10-24T00:22:56.777Z,16.19
2022-10-24T00:25:24.191Z,16.00
2022-10-24T00:27:51.494Z,15.87
2022-10-24T00:30:18.763Z,15.79
2022-10-24T00:32:46.937Z,15.85
2022-10-24T00:35:14.356Z,15.89
2022-10-24T00:37:41.566Z,15.99
2022-10-24T00:40:10.337Z,16.06
2022-10-24T00:42:37.499Z,16.10
2022-10-24T00:45:24.618Z,16.16
2022-10-24T00:47:51.809Z,16.14
2022-10-24T00:50:18.935Z,16.18
2022-10-24T00:52:47.137Z,16.12
2022-10-24T00:55:14.784Z,16.12
2022-10-24T00:57:47.104Z,16.17
2022-10-24T01:00:19.225Z,15.99
2022-10-24T01:02:46.748Z,15.82
2022-10-24T01:05:14.748Z,15.74
2022-10-24T01:08:00.818Z,15.82
2022-10-24T01:10:46.581Z,15.90
2022-10-24T01:13:27.529Z,15.72
2022-10-24T01:16:09.942Z,15.59
2022-10-24T01:18:44.692Z,15.44
2022-10-24T01:21:30.610Z,15.63
2022-10-24T01:24:03.611Z,15.81
2022-10-24T01:26:36.900Z,15.88
2022-10-24T01:29:16.871Z,15.84
2022-10-24T01:31:56.940Z,15.91
2022-10-24T01:34:47.159Z,15.93
2022-10-24T01:37:17.852Z,15.80
2022-10-24T01:39:48.044Z,15.74
2022-10-24T01:42:17.423Z,15.84
2022-10-24T01:44:47.273Z,15.93
2022-10-24T01:47:17.851Z,16.03
2022-10-24T01:49:50.142Z,16.09
2022-10-24T01:52:18.603Z,16.13
2022-10-24T01:54:48.221Z,16.12
2022-10-24T01:57:16.026Z,16.15
2022-10-24T01:59:45.504Z,16.12
2022-10-24T02:02:18.441Z,16.16
2022-10-24T02:04:50.953Z,16.23
2022-10-24T02:07:21.809Z,16.24
2022-10-24T02:09:51.572Z,16.25
2022-10-24T02:12:18.920Z,16.19
2022-10-24T02:14:49.647Z,16.14
2022-10-24T02:17:17.500Z,16.18
2022-10-24T02:19:45.133Z,16.16
2022-10-24T02:22:12.299Z,16.03
2022-10-24T02:24:43.166Z,15.95
2022-10-24T02:27:14.523Z,15.87
2022-10-24T02:29:44.471Z,15.86
2022-10-24T02:32:34.733Z,15.89
2022-10-24T02:35:03.353Z,15.87
2022-10-24T02:37:31.556Z,15.82
2022-10-24T02:40:00.517Z,15.52
2022-10-24T02:45:01.221Z,15.31
2022-10-24T02:47:29.672Z,15.41
2022-10-24T02:49:56.865Z,15.55
2022-10-24T02:52:24.159Z,15.58
2022-10-24T02:54:51.821Z,15.57
2022-10-24T02:57:19.041Z,15.53
2022-10-24T02:59:46.250Z,15.36
2022-10-24T03:02:13.416Z,15.18
2022-10-24T03:04:40.589Z,14.95
2022-10-24T03:07:07.839Z,14.85
2022-10-24T03:09:35.108Z,15.05
2022-10-24T03:12:02.647Z,15.12
2022-10-24T03:14:30.557Z,15.25
2022-10-24T03:16:57.754Z,15.25
2022-10-24T03:19:24.926Z,15.32
2022-10-24T03:21:52.118Z,15.39
2022-10-24T03:24:26.888Z,15.31
2022-10-24T03:27:04.521Z,15.31
2022-10-24T03:29:31.754Z,15.24
2022-10-24T03:31:58.888Z,15.33
2022-10-24T03:34:26.174Z,15.37
2022-10-24T03:36:53.314Z,15.39
2022-10-24T03:39:20.473Z,15.39
2022-10-24T03:41:47.604Z,15.46
2022-10-24T03:44:14.789Z,15.46
2022-10-24T03:46:42.022Z,15.48
2022-10-24T03:49:09.200Z,15.55
2022-10-24T03:51:36.462Z,15.53
2022-10-24T03:54:03.707Z,15.56
2022-10-24T03:56:30.910Z,15.57
2022-10-24T03:58:58.123Z,15.63
2022-10-24T04:01:25.440Z,15.64
2022-10-24T04:03:52.610Z,15.58
2022-10-24T04:06:19.792Z,15.59
2022-10-24T04:08:46.983Z,15.52
2022-10-24T04:11:14.179Z,15.50
2022-10-24T04:13:41.348Z,15.53
2022-10-24T04:16:09.016Z,15.38
2022-10-24T04:18:36.205Z,15.37
2022-10-24T04:21:04.044Z,15.38
2022-10-24T04:23:35.676Z,15.46
2022-10-24T04:26:02.946Z,15.40
2022-10-24T04:28:30.332Z,15.26
2022-10-24T04:30:57.811Z,15.20
2022-10-24T04:33:25.030Z,15.05
2022-10-24T04:35:52.248Z,15.13
2022-10-24T04:38:19.662Z,15.15
2022-10-24T04:40:48.798Z,15.13
2022-10-24T04:43:16.092Z,15.00
2022-10-24T04:45:43.234Z,14.96
2022-10-24T04:48:10.442Z,14.96
2022-10-24T04:50:39.368Z,14.96
2022-10-24T04:53:06.546Z,15.03
2022-10-24T04:55:33.821Z,15.05
2022-10-24T04:58:01.282Z,14.85
2022-10-24T05:00:28.517Z,14.84
2022-10-24T05:02:58.928Z,14.89
2022-10-24T05:05:26.397Z,15.03
2022-10-24T05:07:53.535Z,15.14
2022-10-24T05:10:20.766Z,15.20
2022-10-24T05:12:48.221Z,15.36
2022-10-24T05:15:15.525Z,15.37
2022-10-24T05:17:42.677Z,15.33
2022-10-24T05:20:10.179Z,15.29
2022-10-24T05:22:37.300Z,15.30
2022-10-24T05:25:04.859Z,15.28
2022-10-24T05:27:32.057Z,15.27
2022-10-24T05:29:59.379Z,15.32
2022-10-24T05:32:26.548Z,15.30
2022-10-24T05:34:53.741Z,15.20
2022-10-24T05:37:20.888Z,14.99
2022-10-24T05:39:48.120Z,14.78
2022-10-24T05:42:15.799Z,14.84
2022-10-24T05:44:42.977Z,14.94
2022-10-24T05:47:10.277Z,14.96
2022-10-24T05:49:37.583Z,15.06
2022-10-24T05:52:04.939Z,15.12
2022-10-24T05:54:42.520Z,15.15
2022-10-24T05:57:19.301Z,15.01
2022-10-24T05:59:46.476Z,15.00
2022-10-24T06:02:18.325Z,15.07
2022-10-24T06:04:45.683Z,15.22
2022-10-24T06:07:12.912Z,15.24
2022-10-24T06:09:41.616Z,15.27
2022-10-24T06:12:09.886Z,15.32
2022-10-24T06:14:38.033Z,15.30
2022-10-24T06:17:12.098Z,15.31
2022-10-24T06:19:40.019Z,15.33
2022-10-24T06:22:07.915Z,15.32
2022-10-24T06:24:36.067Z,15.23
2022-10-24T06:27:03.811Z,15.18
2022-10-24T06:29:30.979Z,15.29
2022-10-24T06:31:58.198Z,15.37
2022-10-24T06:34:25.811Z,15.33
2022-10-24T06:36:53.423Z,15.48
2022-10-24T06:39:20.646Z,15.70
2022-10-24T06:41:47.865Z,15.82
2022-10-24T06:44:15.434Z,15.85
2022-10-24T06:46:42.677Z,15.83
2022-10-24T06:49:10.149Z,15.90
2022-10-24T06:51:37.385Z,15.94
2022-10-24T06:54:04.592Z,15.95
2022-10-24T06:56:31.898Z,16.01
2022-10-24T06:58:59.053Z,15.99
2022-10-24T07:01:27.626Z,15.99
2022-10-24T07:03:54.942Z,16.02
2022-10-24T07:08:57.019Z,16.02
2022-10-24T07:11:24.459Z,16.08
2022-10-24T07:13:53.316Z,16.06
2022-10-24T07:16:23.082Z,16.00
2022-10-24T07:18:50.572Z,16.12
2022-10-24T07:21:18.968Z,16.25
2022-10-24T07:23:46.366Z,16.37
2022-10-24T07:26:17.434Z,16.42
2022-10-24T07:28:46.593Z,16.51
2022-10-24T07:31:17.089Z,16.58
2022-10-24T07:33:44.319Z,16.68
2022-10-24T07:36:15.170Z,16.79
2022-10-24T07:38:42.353Z,16.78
2022-10-24T07:41:09.557Z,16.85
2022-10-24T07:43:36.800Z,17.00
2022-10-24T07:46:08.132Z,17.08
2022-10-24T07:48:35.860Z,17.32
2022-10-24T07:51:05.797Z,17.51
2022-10-24T07:53:33.094Z,17.95
2022-10-24T07:56:00.732Z,18.55
2022-10-24T07:58:28.528Z,19.05
2022-10-24T08:00:55.711Z,19.90
2022-10-24T08:03:22.942Z,20.52
2022-10-24T08:05:50.556Z,20.67
2022-10-24T08:08:34.968Z,20.63
2022-10-24T08:11:07.990Z,20.68
2022-10-24T08:13:35.222Z,20.63
2022-10-24T08:16:04.577Z,20.94
2022-10-24T08:18:34.639Z,21.20
2022-10-24T08:21:06.541Z,21.54
2022-10-24T08:23:34.385Z,21.60
2022-10-24T08:26:04.573Z,21.43
2022-10-24T08:28:31.811Z,21.39
2022-10-24T08:31:00.382Z,21.29
2022-10-24T08:33:30.200Z,21.39
2022-10-24T08:35:59.620Z,21.13
2022-10-24T08:38:27.245Z,20.80
2022-10-24T08:40:54.906Z,20.38
2022-10-24T08:43:22.593Z,20.03
2022-10-24T08:46:10.114Z,19.82
2022-10-24T08:48:43.869Z,19.72
2022-10-24T08:51:30.876Z,19.64
2022-10-24T08:53:59.168Z,19.63
2022-10-24T08:56:28.748Z,19.53
2022-10-24T08:58:57.118Z,19.37
2022-10-24T09:01:27.523Z,19.35
2022-10-24T09:03:56.958Z,19.41
2022-10-24T09:06:26.464Z,19.31
2022-10-24T09:09:00.919Z,19.31
2022-10-24T09:11:40.057Z,19.27
2022-10-24T09:14:12.190Z,19.28
2022-10-24T09:16:41.062Z,19.32
2022-10-24T09:19:10.776Z,19.38
2022-10-24T09:21:40.212Z,19.48
2022-10-24T09:24:07.588Z,19.71
2022-10-24T09:26:37.592Z,19.93
2022-10-24T09:29:05.119Z,20.11
2022-10-24T09:31:32.848Z,20.21
2022-10-24T09:34:00.926Z,20.36
2022-10-24T09:36:29.502Z,20.46
2022-10-24T09:38:56.661Z,20.48
2022-10-24T09:41:29.694Z,20.48
2022-10-24T09:44:01.142Z,20.53
2022-10-24T09:46:29.690Z,20.51
2022-10-24T09:49:20.175Z,20.65
2022-10-24T09:51:51.217Z,20.81
2022-10-24T09:54:18.361Z,20.80
2022-10-24T09:57:02.632Z,20.79
2022-10-24T09:59:29.833Z,20.93
2022-10-24T10:02:19.249Z,20.94
2022-10-24T10:05:09.426Z,21.04
2022-10-24T10:07:38.787Z,21.04
2022-10-24T10:10:09.599Z,20.98
2022-10-24T10:12:37.947Z,20.91
2022-10-24T10:15:20.198Z,20.84
2022-10-24T10:17:52.030Z,20.90
2022-10-24T10:20:39.336Z,20.93
2022-10-24T10:23:26.894Z,21.03
2022-10-24T10:26:13.636Z,21.03
2022-10-24T10:28:43.593Z,21.11
2022-10-24T10:40:37.010Z,21.11
2022-10-24T10:43:28.574Z,21.21
2022-10-24T10:46:01.819Z,21.19
2022-10-24T10:48:42.279Z,21.25
2022-10-24T10:51:27.484Z,21.27
2022-10-24T10:53:54.610Z,21.27
2022-10-24T10:56:21.813Z,21.27
2022-10-24T10:58:56.720Z,21.20
2022-10-24T11:01:42.655Z,21.26
2022-10-24T11:04:20.207Z,21.33
2022-10-24T11:06:56.513Z,21.28
2022-10-24T11:09:29.245Z,21.43
2022-10-24T11:12:03.002Z,21.43
2022-10-24T11:14:35.072Z,21.43
2022-10-24T11:17:11.312Z,21.39
2022-10-24T11:19:46.108Z,21.50
2022-10-24T11:22:20.295Z,21.51
2022-10-24T11:24:53.234Z,21.62
2022-10-24T11:27:24.482Z,21.58
2022-10-24T11:30:05.201Z,21.48
2022-10-24T11:32:46.242Z,21.47
2022-10-24T11:35:27.727Z,21.51
2022-10-24T11:38:15.079Z,21.69
2022-10-24T11:40:44.741Z,21.78
2022-10-24T11:43:27.342Z,21.75
2022-10-24T11:46:05.343Z,21.78
2022-10-24T11:48:50.942Z,22.01
2022-10-24T11:51:21.780Z,22.02
2022-10-24T11:53:57.289Z,21.98
2022-10-24T11:56:30.848Z,21.90
2022-10-24T11:59:02.417Z,21.98
2022-10-24T12:01:35.716Z,22.03
2022-10-24T12:04:11.706Z,22.07
2022-10-24T12:06:47.594Z,22.21
2022-10-24T12:09:14.748Z,22.22
2022-10-24T12:12:00.544Z,22.30
2022-10-24T12:14:38.606Z,22.34
2022-10-24T12:17:24.769Z,22.17
2022-10-24T12:19:52.354Z,22.02
2022-10-24T12:25:12.945Z,21.91
2022-10-24T12:27:41.483Z,21.95
2022-10-24T12:30:08.562Z,21.94
2022-10-24T12:33:04.953Z,21.97
2022-10-24T12:35:34.287Z,21.95
2022-10-24T12:38:02.819Z,21.96
2022-10-24T12:40:55.818Z,22.02
2022-10-24T12:43:32.104Z,21.93
2022-10-24T12:46:15.877Z,22.00
2022-10-24T12:48:58.393Z,22.08
2022-10-24T12:51:38.653Z,22.08
2022-10-24T12:54:11.541Z,21.99
2022-10-24T12:56:51.194Z,22.06
2022-10-24T12:59:27.521Z,22.13
2022-10-24T13:02:13.219Z,22.20
2022-10-24T13:04:59.342Z,22.18
2022-10-24T13:07:34.388Z,22.13
2022-10-24T13:10:20.247Z,22.04
2022-10-24T13:12:53.226Z,21.98
2022-10-24T13:15:26.438Z,21.97
2022-10-24T13:17:57.171Z,22.07
2022-10-24T13:20:34.021Z,22.08
2022-10-24T13:23:03.231Z,22.09
2022-10-24T13:25:37.458Z,22.09
2022-10-24T13:28:16.959Z,22.00
2022-10-24T13:30:46.028Z,22.09
2022-10-24T13:33:36.537Z,22.00
2022-10-24T13:36:09.927Z,22.12
2022-10-24T13:38:41.733Z,22.27
2022-10-24T13:41:14.715Z,22.18
2022-10-24T13:43:47.039Z,22.24
2022-10-24T13:46:23.875Z,22.18
2022-10-24T13:48:52.427Z,22.26
2022-10-24T13:51:32.255Z,22.20
2022-10-24T13:54:02.311Z,22.22
2022-10-24T13:56:31.835Z,22.17
2022-10-24T13:58:59.024Z,22.18
2022-10-24T14:01:28.608Z,22.28
2022-10-24T14:03:57.196Z,22.27
2022-10-24T14:06:32.207Z,22.24
2022-10-24T14:09:07.189Z,22.17
2022-10-24T14:11:39.334Z,22.15
2022-10-24T14:14:13.822Z,22.19
2022-10-24T14:16:41.106Z,22.20
2022-10-24T14:19:15.413Z,22.21
2022-10-24T14:21:48.567Z,22.18
2022-10-24T14:24:16.999Z,22.10
2022-10-24T14:26:45.735Z,22.08
2022-10-24T14:29:23.296Z,22.24
2022-10-24T14:31:59.140Z,22.24
2022-10-24T14:34:26.908Z,22.18
2022-10-24T14:36:56.049Z,22.15
2022-10-24T14:39:26.460Z,22.03
2022-10-24T14:41:54.209Z,22.09
2022-10-24T14:44:22.404Z,22.21
2022-10-24T14:47:03.034Z,22.18
2022-10-24T14:49:33.699Z,22.10
2022-10-24T14:52:07.869Z,22.01
2022-10-24T14:54:35.725Z,22.04
2022-10-24T14:57:04.062Z,21.95
2022-10-24T14:59:35.796Z,21.98
2022-10-24T15:02:06.170Z,21.95
2022-10-24T15:04:38.070Z,22.00
2022-10-24T15:07:29.502Z,21.93
2022-10-24T15:10:01.693Z,21.95
2022-10-24T15:12:40.832Z,21.94
2022-10-24T15:15:23.550Z,21.94
2022-10-24T15:17:58.357Z,22.02
2022-10-24T15:20:30.099Z,21.97
2022-10-24T15:22:58.870Z,21.83
2022-10-24T15:25:39.183Z,21.70
2022-10-24T15:28:29.216Z,21.68
2022-10-24T15:30:56.339Z,21.66
2022-10-24T15:33:23.449Z,21.83
2022-10-24T15:35:50.587Z,21.84
2022-10-24T15:38:18.757Z,21.82
2022-10-24T15:40:47.419Z,21.76
2022-10-24T15:43:16.259Z,21.70
2022-10-24T15:45:43.711Z,21.60
2022-10-24T15:48:11.004Z,21.59
2022-10-24T15:50:43.487Z,21.54
2022-10-24T15:53:15.532Z,21.54
2022-10-24T15:55:42.669Z,21.47
2022-10-24T15:58:13.646Z,21.56
2022-10-24T16:00:41.275Z,21.51
2022-10-24T16:03:11.826Z,21.52
2022-10-24T16:05:41.124Z,21.51
2022-10-24T16:08:15.402Z,21.35
2022-10-24T16:10:43.622Z,21.25
2022-10-24T16:13:13.245Z,21.23
2022-10-24T16:15:40.913Z,21.15
2022-10-24T16:18:08.821Z,21.11
2022-10-24T16:20:36.008Z,21.10
2022-10-24T16:23:03.843Z,21.06
2022-10-24T16:25:35.875Z,21.05
2022-10-24T16:28:05.922Z,21.03
2022-10-24T16:30:33.804Z,21.02
2022-10-24T16:33:00.994Z,21.01
2022-10-24T16:35:29.412Z,21.02
2022-10-24T16:37:57.568Z,21.08
2022-10-24T16:40:26.880Z,21.02
2022-10-24T16:42:55.339Z,20.97
2022-10-24T16:45:23.164Z,20.96
2022-10-24T16:47:51.000Z,20.91
2022-10-24T16:50:23.911Z,20.84
2022-10-24T16:52:51.995Z,20.81
2022-10-24T16:55:19.405Z,20.82
2022-10-24T16:57:47.282Z,20.79
2022-10-24T17:00:16.867Z,20.77
2022-10-24T17:02:45.670Z,20.73
2022-10-24T17:05:13.564Z,20.70
2022-10-24T17:07:41.256Z,20.67
2022-10-24T17:10:08.860Z,20.64
2022-10-24T17:12:36.020Z,20.59
2022-10-24T17:15:03.509Z,20.56
2022-10-24T17:17:30.885Z,20.55
2022-10-24T17:19:58.081Z,20.54
2022-10-24T17:22:25.347Z,20.48
2022-10-24T17:24:53.436Z,20.44
2022-10-24T17:27:21.302Z,20.43
2022-10-24T17:29:49.214Z,20.41
2022-10-24T17:32:16.755Z,20.39
2022-10-24T17:34:45.656Z,20.36
2022-10-24T17:37:16.223Z,20.35
2022-10-24T17:39:51.336Z,20.33
2022-10-24T17:42:19.276Z,20.30
2022-10-24T17:44:47.673Z,20.29
2022-10-24T17:47:15.725Z,20.28
2022-10-24T17:49:43.505Z,20.25
2022-10-24T17:52:12.503Z,20.21
2022-10-24T17:54:44.777Z,20.18
2022-10-24T17:57:13.025Z,20.14
2022-10-24T17:59:40.364Z,20.12
2022-10-24T18:02:11.774Z,20.09
2022-10-24T18:04:40.590Z,20.10
2022-10-24T18:07:07.793Z,20.08
2022-10-24T18:09:36.910Z,20.04
2022-10-24T18:12:04.108Z,19.98
2022-10-24T18:14:31.413Z,19.98
2022-10-24T18:16:59.852Z,19.99
2022-10-24T18:19:26.991Z,19.89
2022-10-24T18:21:54.100Z,19.84
2022-10-24T18:24:21.215Z,19.84
2022-10-24T18:26:48.330Z,19.83
2022-10-24T18:29:15.422Z,19.76
2022-10-24T18:31:42.557Z,19.67
2022-10-24T18:34:09.918Z,19.63
2022-10-24T18:36:37.112Z,19.69
2022-10-24T18:39:04.363Z,19.77
2022-10-24T18:41:34.359Z,19.75
2022-10-24T18:44:24.712Z,19.61
2022-10-24T18:46:52.440Z,19.34
2022-10-24T18:49:19.756Z,19.31
2022-10-24T18:51:57.669Z,19.14
2022-10-24T18:54:25.058Z,19.14
2022-10-24T18:56:52.358Z,19.09
2022-10-24T18:59:20.792Z,18.95
2022-10-24T19:02:06.774Z,18.79
2022-10-24T19:04:34.202Z,18.78
2022-10-24T19:07:02.441Z,18.71
2022-10-24T19:09:29.933Z,18.64
2022-10-24T19:11:57.154Z,18.72
2022-10-24T19:14:25.174Z,18.76
2022-10-24T19:16:52.871Z,18.82
2022-10-24T19:19:25.314Z,18.90
2022-10-24T19:21:52.456Z,19.00
2022-10-24T19:24:19.702Z,19.02
2022-10-24T19:26:46.810Z,18.85
2022-10-24T19:29:14.024Z,18.92
2022-10-24T19:31:41.157Z,18.78
2022-10-24T19:34:09.516Z,18.81
2022-10-24T19:36:36.851Z,18.75
2022-10-24T19:39:04.025Z,18.76
2022-10-24T19:41:31.107Z,18.52
2022-10-24T19:43:58.409Z,18.42
2022-10-24T19:46:25.637Z,18.27
2022-10-24T19:48:53.289Z,18.28
2022-10-24T19:51:20.944Z,18.33
2022-10-24T19:53:49.692Z,18.44
2022-10-24T19:56:22.651Z,18.60
2022-10-24T19:58:52.471Z,18.62
2022-10-24T20:01:21.217Z,18.59
2022-10-24T20:03:49.291Z,18.41
2022-10-24T20:06:17.036Z,18.46
2022-10-24T20:08:46.433Z,18.34
2022-10-24T20:11:15.619Z,18.38
2022-10-24T20:13:43.789Z,18.39
2022-10-24T20:16:11.098Z,18.34
2022-10-24T20:18:38.882Z,18.42
2022-10-24T20:21:07.593Z,18.47
2022-10-24T20:23:35.708Z,18.44
2022-10-24T20:26:04.914Z,18.43
2022-10-24T20:28:40.412Z,18.22
2022-10-24T20:31:07.655Z,18.12
2022-10-24T20:33:34.801Z,18.09
2022-10-24T20:36:01.983Z,18.11
2022-10-24T20:38:29.334Z,18.17
2022-10-24T20:41:00.791Z,18.07
2022-10-24T20:43:28.500Z,17.99
2022-10-24T20:45:55.712Z,18.13
2022-10-24T20:48:23.040Z,18.01
2022-10-24T20:50:50.230Z,18.00
2022-10-24T20:53:17.349Z,17.94
2022-10-24T20:55:45.070Z,17.95
2022-10-24T20:58:13.542Z,17.81
2022-10-24T21:03:12.194Z,17.98
2022-10-24T21:05:39.543Z,17.98
2022-10-24T21:08:06.692Z,17.97
2022-10-24T21:10:33.837Z,17.91
2022-10-24T21:13:01.051Z,17.82
2022-10-24T21:15:28.207Z,17.85
2022-10-24T21:17:55.325Z,17.92
2022-10-24T21:20:22.486Z,17.95
2022-10-24T21:22:49.612Z,18.12
2022-10-24T21:25:16.743Z,18.06
2022-10-24T21:27:43.984Z,17.89
2022-10-24T21:30:14.616Z,17.79
2022-10-24T21:32:42.337Z,17.71
2022-10-24T21:35:09.451Z,17.78
2022-10-24T21:37:36.557Z,17.80
2022-10-24T21:40:04.019Z,17.87
2022-10-24T21:42:31.442Z,17.86
2022-10-24T21:44:58.544Z,17.74
2022-10-24T21:47:25.709Z,17.72
2022-10-24T21:49:52.819Z,17.65
2022-10-24T21:52:20.068Z,17.57
2022-10-24T21:54:47.198Z,17.44
2022-10-24T21:57:14.329Z,17.31
2022-10-24T21:59:41.428Z,17.10
2022-10-24T22:02:09.227Z,17.07
2022-10-24T22:04:36.479Z,17.10
2022-10-24T22:07:05.885Z,17.10
2022-10-24T22:09:33.078Z,17.25
2022-10-24T22:12:00.563Z,17.42
2022-10-24T22:14:27.930Z,17.25
2022-10-24T22:16:55.114Z,17.08
2022-10-24T22:19:22.210Z,17.00
2022-10-24T22:21:50.168Z,17.10
2022-10-24T22:24:18.640Z,17.31
2022-10-24T22:26:45.841Z,17.52
2022-10-24T22:29:14.271Z,17.62
2022-10-24T22:31:41.973Z,17.54
2022-10-24T22:34:11.186Z,17.53
2022-10-24T22:36:56.804Z,17.53
2022-10-24T22:39:24.806Z,17.50
2022-10-24T22:41:52.126Z,17.57
2022-10-24T22:44:22.763Z,17.67
2022-10-24T22:46:49.884Z,17.67
2022-10-24T22:49:20.064Z,17.57
2022-10-24T22:51:47.356Z,17.58
2022-10-24T22:54:18.060Z,17.49
2022-10-24T22:56:45.274Z,17.44
2022-10-24T22:59:12.476Z,17.48
2022-10-24T23:01:49.279Z,17.54
2022-10-24T23:04:16.465Z,17.68
2022-10-24T23:06:55.384Z,17.80
2022-10-24T23:09:22.520Z,17.80
2022-10-24T23:11:49.905Z,17.79
2022-10-24T23:16:55.241Z,17.71
2022-10-24T23:19:23.872Z,17.80
2022-10-24T23:22:00.098Z,17.89
2022-10-24T23:24:28.467Z,17.89
2022-10-24T23:27:01.424Z,17.82
2022-10-24T23:29:32.609Z,17.88
2022-10-24T23:31:59.992Z,17.95
2022-10-24T23:34:27.381Z,18.04
2022-10-24T23:36:56.933Z,18.15
2022-10-24T23:39:25.125Z,18.10
2022-10-24T23:41:52.548Z,17.94
2022-10-24T23:44:19.805Z,17.94
2022-10-24T23:46:50.050Z,17.96
2022-10-24T23:49:30.381Z,17.99
2022-10-24T23:52:19.015Z,17.85
2022-10-24T23:54:46.357Z,17.70
2022-10-24T23:57:15.570Z,17.68
2022-10-24T23:59:43.106Z,17.77
